Salamis Filoxenia — 5BUY2 — position and weather

sailwx.info

Track history (hours):
 
Tides and Currents Weather Stations Pressure Air Temp Water Temp Dewpoint Dewpoint Depression Visibility Wind Speed Wind Dir Waves Ship Positions

Salamis Filoxenia

Last reported at 2017-Jul-25 00:38 UTC. Time now 2017-Jul-25 02:31 UTC.
Position N 37°32' E 024°44'.

Length 157 m; draft 6.2 m.

Type: Passenger vessel. MMSI: 209167000.

Date/timePositionNaut miles runAvg speedWind from/ knotsBaromVisibWave heightAir tempDewpointWater temp
2017-Jul-25 00:38N 37°32' E 024°44'213.8
2017-Jul-25 00:30N 37°32' E 024°46'713.6
2017-Jul-24 23:57N 37°32' E 024°55'613.9
2017-Jul-24 23:30N 37°31' E 025°03'713.8
2017-Jul-24 23:00N 37°30' E 025°12'714.1
2017-Jul-24 22:29N 37°31' E 025°21'613.4
2017-Jul-24 22:00N 37°31' E 025°29'713.1
2017-Jul-24 21:30N 37°30' E 025°37'713.9
2017-Jul-24 20:59N 37°30' E 025°46'714.1
2017-Jul-24 20:31N 37°29' E 025°55'359 7.0
2017-Jul-22 17:02N 34°40' E 032°27'114.4
2017-Jul-22 16:58N 34°40' E 032°28'614.0
2017-Jul-22 16:30N 34°38' E 032°36'713.9
2017-Jul-22 16:00N 34°36' E 032°44'713.9
2017-Jul-22 15:31N 34°33' E 032°52'714.0
2017-Jul-22 15:01N 34°32' E 032°60'7 7.2
2017-Jul-22 14:00N 34°39' E 033°01'0 0.0
2017-Jul-22 13:30N 34°39' E 033°01'0 0.0
2017-Jul-22 13:00N 34°39' E 033°01'0 0.0
2017-Jul-22 12:30N 34°39' E 033°01'0 0.0
2017-Jul-22 12:00N 34°39' E 033°01'0 0.0
2017-Jul-22 11:30N 34°39' E 033°01'0 0.0
2017-Jul-22 11:00N 34°39' E 033°01'0 0.0
2017-Jul-22 10:30N 34°39' E 033°01'0 0.0
2017-Jul-22 10:00N 34°39' E 033°01'0 0.0
2017-Jul-22 09:30N 34°39' E 033°01'0 0.0
2017-Jul-22 09:00N 34°39' E 033°01'0 0.5
2017-Jul-22 08:31N 34°39' E 033°01'5 9.4
2017-Jul-22 08:01N 34°35' E 033°04'510.5
2017-Jul-22 07:30N 34°32' E 032°59'714.3
2017-Jul-22 07:00N 34°33' E 032°50'714.7
2017-Jul-22 06:30N 34°36' E 032°42'714.7
2017-Jul-22 06:00N 34°39' E 032°33'  
2017-Jul-17 23:46N 35°34' E 030°21'4315.3
2017-Jul-17 20:58N 35°15' E 031°08'2115.3
2017-Jul-17 19:37N 35°05' E 031°30'3514.8
2017-Jul-17 17:15N 34°48' E 032°07'614.5
2017-Jul-17 16:51N 34°46' E 032°14'1614.5
2017-Jul-17 15:45N 34°39' E 032°32'2713.9
2017-Jul-17 13:49N 34°33' E 033°03'515.0
2017-Jul-17 13:30N 34°38' E 033°03'2 4.4
2017-Jul-17 13:01N 34°39' E 033°01'0 0.0
2017-Jul-17 12:31N 34°39' E 033°01'0 0.0
2017-Jul-17 12:01N 34°39' E 033°01'0 0.0
2017-Jul-17 11:31N 34°39' E 033°01'0 0.0
2017-Jul-17 11:01N 34°39' E 033°01'0 0.0
2017-Jul-17 10:30N 34°39' E 033°01'0 0.0
2017-Jul-17 10:01N 34°39' E 033°01'0 0.0
2017-Jul-17 09:30N 34°39' E 033°01'0 0.0
2017-Jul-17 09:00N 34°39' E 033°01'0 0.0
2017-Jul-17 08:31N 34°39' E 033°01'0 0.0
2017-Jul-17 08:00N 34°39' E 033°01'0 0.0
2017-Jul-17 07:31N 34°39' E 033°01'0 0.0
2017-Jul-17 07:01N 34°39' E 033°01'1 1.2
2017-Jul-17 06:30N 34°39' E 033°02'611.4
2017-Jul-17 06:00N 34°34' E 033°04'5613.9
2017-Jul-17 01:59N 34°52' E 031°59'1214.3
2017-Jul-17 01:10N 34°58' E 031°47'214.8
2017-Jul-17 01:01N 34°59' E 031°44'714.7
2017-Jul-17 00:31N 35°02' E 031°36'814.6
2017-Jul-16 23:59N 35°06' E 031°28'914.6
2017-Jul-16 23:23N 35°10' E 031°19'614.7
2017-Jul-16 23:00N 35°12' E 031°13'714.6
2017-Jul-16 22:30N 35°16' E 031°05'714.5
2017-Jul-16 22:00N 35°19' E 030°57'1114.5
2017-Jul-16 21:13N 35°24' E 030°44'314.4
2017-Jul-16 21:00N 35°26' E 030°41'714.4
2017-Jul-16 20:30N 35°29' E 030°33'4614.7
2017-Jul-16 17:21N 35°51' E 029°43'614.9
2017-Jul-16 16:59N 35°53' E 029°37'714.9
2017-Jul-16 16:31N 35°57' E 029°29'714.8
2017-Jul-16 16:00N 36°00' E 029°21'914.5
2017-Jul-16 15:25N 36°04' E 029°11'3514.1
2017-Jul-16 12:56N 36°20' E 028°33'14114.6
2017-Jul-16 03:16N 37°10' E 025°48'415.7
2017-Jul-16 03:00N 37°12' E 025°43'915.6
2017-Jul-16 02:27N 37°16' E 025°33'715.7
2017-Jul-16 02:00N 37°19' E 025°26'815.4
2017-Jul-16 01:30N 37°23' E 025°17'510.2
2017-Jul-16 01:00N 37°28' E 025°19'0 0.0
2017-Jul-16 00:30N 37°28' E 025°19'0 0.0
2017-Jul-16 00:00N 37°28' E 025°19'0 0.0
2017-Jul-15 23:30N 37°28' E 025°19'0 0.0
2017-Jul-15 23:00N 37°28' E 025°19'0 0.0
2017-Jul-15 22:31N 37°28' E 025°19'0 0.0
2017-Jul-15 22:00N 37°28' E 025°19'0 0.0
2017-Jul-15 21:30N 37°28' E 025°19'0 0.0
2017-Jul-15 21:00N 37°28' E 025°19'0 0.0
2017-Jul-15 20:31N 37°28' E 025°19'0 0.0
2017-Jul-15 20:01N 37°28' E 025°19'0 0.0
2017-Jul-15 19:30N 37°28' E 025°19'0 0.0
2017-Jul-15 19:00N 37°28' E 025°19'0 0.0
2017-Jul-15 18:30N 37°28' E 025°19'0 0.0
2017-Jul-15 18:01N 37°28' E 025°19'0 0.0
2017-Jul-15 17:31N 37°28' E 025°19'0 0.0
2017-Jul-15 17:00N 37°28' E 025°19'0 0.0
2017-Jul-15 16:31N 37°28' E 025°19'0 0.0
2017-Jul-15 16:00N 37°28' E 025°19'0 0.0
2017-Jul-15 15:30N 37°28' E 025°19'2 4.6
2017-Jul-15 15:00N 37°26' E 025°17'1313.0
2017-Jul-15 14:00N 37°18' E 025°29'814.4
2017-Jul-15 13:26N 37°14' E 025°39'614.3
2017-Jul-15 13:00N 37°11' E 025°46'  
Track history (hours):
 
Tides and Currents Weather Stations Pressure Air Temp Water Temp Dewpoint Dewpoint Depression Visibility Wind Speed Wind Dir Waves Ship Positions

Salamis Filoxenia

Last reported at 2017-Jul-25 00:38 UTC. Time now 2017-Jul-25 02:31 UTC.
Position N 37°32' E 024°44'.

Length 157 m; draft 6.2 m.

Type: Passenger vessel. MMSI: 209167000.

Date/timePositionNaut miles runAvg speedWind from/ knotsBaromVisibWave heightAir tempDewpointWater temp
2017-Jul-25 00:38N 37°32' E 024°44'213.8
2017-Jul-25 00:30N 37°32' E 024°46'713.6
2017-Jul-24 23:57N 37°32' E 024°55'613.9
2017-Jul-24 23:30N 37°31' E 025°03'713.8
2017-Jul-24 23:00N 37°30' E 025°12'714.1
2017-Jul-24 22:29N 37°31' E 025°21'613.4
2017-Jul-24 22:00N 37°31' E 025°29'713.1
2017-Jul-24 21:30N 37°30' E 025°37'713.9
2017-Jul-24 20:59N 37°30' E 025°46'714.1
2017-Jul-24 20:31N 37°29' E 025°55'359 7.0
2017-Jul-22 17:02N 34°40' E 032°27'114.4
2017-Jul-22 16:58N 34°40' E 032°28'614.0
2017-Jul-22 16:30N 34°38' E 032°36'713.9
2017-Jul-22 16:00N 34°36' E 032°44'713.9
2017-Jul-22 15:31N 34°33' E 032°52'714.0
2017-Jul-22 15:01N 34°32' E 032°60'7 7.2
2017-Jul-22 14:00N 34°39' E 033°01'0 0.0
2017-Jul-22 13:30N 34°39' E 033°01'0 0.0
2017-Jul-22 13:00N 34°39' E 033°01'0 0.0
2017-Jul-22 12:30N 34°39' E 033°01'0 0.0
2017-Jul-22 12:00N 34°39' E 033°01'0 0.0
2017-Jul-22 11:30N 34°39' E 033°01'0 0.0
2017-Jul-22 11:00N 34°39' E 033°01'0 0.0
2017-Jul-22 10:30N 34°39' E 033°01'0 0.0
2017-Jul-22 10:00N 34°39' E 033°01'0 0.0
2017-Jul-22 09:30N 34°39' E 033°01'0 0.0
2017-Jul-22 09:00N 34°39' E 033°01'0 0.5
2017-Jul-22 08:31N 34°39' E 033°01'5 9.4
2017-Jul-22 08:01N 34°35' E 033°04'510.5
2017-Jul-22 07:30N 34°32' E 032°59'714.3
2017-Jul-22 07:00N 34°33' E 032°50'714.7
2017-Jul-22 06:30N 34°36' E 032°42'714.7
2017-Jul-22 06:00N 34°39' E 032°33'  
2017-Jul-17 23:46N 35°34' E 030°21'4315.3
2017-Jul-17 20:58N 35°15' E 031°08'2115.3
2017-Jul-17 19:37N 35°05' E 031°30'3514.8
2017-Jul-17 17:15N 34°48' E 032°07'614.5
2017-Jul-17 16:51N 34°46' E 032°14'1614.5
2017-Jul-17 15:45N 34°39' E 032°32'2713.9
2017-Jul-17 13:49N 34°33' E 033°03'515.0
2017-Jul-17 13:30N 34°38' E 033°03'2 4.4
2017-Jul-17 13:01N 34°39' E 033°01'0 0.0
2017-Jul-17 12:31N 34°39' E 033°01'0 0.0
2017-Jul-17 12:01N 34°39' E 033°01'0 0.0
2017-Jul-17 11:31N 34°39' E 033°01'0 0.0
2017-Jul-17 11:01N 34°39' E 033°01'0 0.0
2017-Jul-17 10:30N 34°39' E 033°01'0 0.0
2017-Jul-17 10:01N 34°39' E 033°01'0 0.0
2017-Jul-17 09:30N 34°39' E 033°01'0 0.0
2017-Jul-17 09:00N 34°39' E 033°01'0 0.0
2017-Jul-17 08:31N 34°39' E 033°01'0 0.0
2017-Jul-17 08:00N 34°39' E 033°01'0 0.0
2017-Jul-17 07:31N 34°39' E 033°01'0 0.0
2017-Jul-17 07:01N 34°39' E 033°01'1 1.2
2017-Jul-17 06:30N 34°39' E 033°02'611.4
2017-Jul-17 06:00N 34°34' E 033°04'5613.9
2017-Jul-17 01:59N 34°52' E 031°59'1214.3
2017-Jul-17 01:10N 34°58' E 031°47'214.8
2017-Jul-17 01:01N 34°59' E 031°44'714.7
2017-Jul-17 00:31N 35°02' E 031°36'814.6
2017-Jul-16 23:59N 35°06' E 031°28'914.6
2017-Jul-16 23:23N 35°10' E 031°19'614.7
2017-Jul-16 23:00N 35°12' E 031°13'714.6
2017-Jul-16 22:30N 35°16' E 031°05'714.5
2017-Jul-16 22:00N 35°19' E 030°57'1114.5
2017-Jul-16 21:13N 35°24' E 030°44'314.4
2017-Jul-16 21:00N 35°26' E 030°41'714.4
2017-Jul-16 20:30N 35°29' E 030°33'4614.7
2017-Jul-16 17:21N 35°51' E 029°43'614.9
2017-Jul-16 16:59N 35°53' E 029°37'714.9
2017-Jul-16 16:31N 35°57' E 029°29'714.8
2017-Jul-16 16:00N 36°00' E 029°21'914.5
2017-Jul-16 15:25N 36°04' E 029°11'3514.1
2017-Jul-16 12:56N 36°20' E 028°33'14114.6
2017-Jul-16 03:16N 37°10' E 025°48'415.7
2017-Jul-16 03:00N 37°12' E 025°43'915.6
2017-Jul-16 02:27N 37°16' E 025°33'715.7
2017-Jul-16 02:00N 37°19' E 025°26'815.4
2017-Jul-16 01:30N 37°23' E 025°17'510.2
2017-Jul-16 01:00N 37°28' E 025°19'0 0.0
2017-Jul-16 00:30N 37°28' E 025°19'0 0.0
2017-Jul-16 00:00N 37°28' E 025°19'0 0.0
2017-Jul-15 23:30N 37°28' E 025°19'0 0.0
2017-Jul-15 23:00N 37°28' E 025°19'0 0.0
2017-Jul-15 22:31N 37°28' E 025°19'0 0.0
2017-Jul-15 22:00N 37°28' E 025°19'0 0.0
2017-Jul-15 21:30N 37°28' E 025°19'0 0.0
2017-Jul-15 21:00N 37°28' E 025°19'0 0.0
2017-Jul-15 20:31N 37°28' E 025°19'0 0.0
2017-Jul-15 20:01N 37°28' E 025°19'0 0.0
2017-Jul-15 19:30N 37°28' E 025°19'0 0.0
2017-Jul-15 19:00N 37°28' E 025°19'0 0.0
2017-Jul-15 18:30N 37°28' E 025°19'0 0.0
2017-Jul-15 18:01N 37°28' E 025°19'0 0.0
2017-Jul-15 17:31N 37°28' E 025°19'0 0.0
2017-Jul-15 17:00N 37°28' E 025°19'0 0.0
2017-Jul-15 16:31N 37°28' E 025°19'0 0.0
2017-Jul-15 16:00N 37°28' E 025°19'0 0.0
2017-Jul-15 15:30N 37°28' E 025°19'2 4.6
2017-Jul-15 15:00N 37°26' E 025°17'1313.0
2017-Jul-15 14:00N 37°18' E 025°29'814.4
2017-Jul-15 13:26N 37°14' E 025°39'614.3
2017-Jul-15 13:00N 37°11' E 025°46'  

Dump ship's entire track history